sensor_id;sensor_type;location;lat;lon;timestamp;temperature;humidity
13798;DHT22;6970;51.340;3.240;2022-10-16T00:01:11;13.80;99.90
13798;DHT22;6970;51.340;3.240;2022-10-16T00:03:40;13.90;99.90
13798;DHT22;6970;51.340;3.240;2022-10-16T00:06:08;13.80;99.90
13798;DHT22;6970;51.340;3.240;2022-10-16T00:08:37;13.90;99.90
13798;DHT22;6970;51.340;3.240;2022-10-16T00:11:14;13.90;99.90
13798;DHT22;6970;51.340;3.240;2022-10-16T00:13:43;13.90;99.90
13798;DHT22;6970;51.340;3.240;2022-10-16T00:16:11;13.90;99.90
13798;DHT22;6970;51.340;3.240;2022-10-16T00:18:39;13.90;99.90
13798;DHT22;6970;51.340;3.240;2022-10-16T00:21:08;13.90;99.90
13798;DHT22;6970;51.340;3.240;2022-10-16T00:23:36;13.90;99.90
13798;DHT22;6970;51.340;3.240;2022-10-16T00:26:09;14.00;99.90
13798;DHT22;6970;51.340;3.240;2022-10-16T00:28:36;14.00;99.90
13798;DHT22;6970;51.340;3.240;2022-10-16T00:31:09;14.00;99.90
13798;DHT22;6970;51.340;3.240;2022-10-16T00:33:38;14.10;99.90
13798;DHT22;6970;51.340;3.240;2022-10-16T00:36:07;14.10;99.90
13798;DHT22;6970;51.340;3.240;2022-10-16T00:38:34;14.10;99.90
13798;DHT22;6970;51.340;3.240;2022-10-16T00:41:01;14.20;99.90
13798;DHT22;6970;51.340;3.240;2022-10-16T00:43:41;14.20;99.90
13798;DHT22;6970;51.340;3.240;2022-10-16T00:46:37;14.20;99.90
13798;DHT22;6970;51.340;3.240;2022-10-16T00:49:14;14.20;99.90
13798;DHT22;6970;51.340;3.240;2022-10-16T00:51:45;14.20;99.90
13798;DHT22;6970;51.340;3.240;2022-10-16T00:54:33;14.20;99.90
13798;DHT22;6970;51.340;3.240;2022-10-16T00:57:03;14.20;99.90
13798;DHT22;6970;51.340;3.240;2022-10-16T00:59:40;14.20;99.90
13798;DHT22;6970;51.340;3.240;2022-10-16T01:02:10;14.20;99.90
13798;DHT22;6970;51.340;3.240;2022-10-16T01:04:52;14.20;99.90
13798;DHT22;6970;51.340;3.240;2022-10-16T01:10:14;14.30;99.90
13798;DHT22;6970;51.340;3.240;2022-10-16T01:15:28;14.30;99.90
13798;DHT22;6970;51.340;3.240;2022-10-16T01:18:10;14.30;99.90
13798;DHT22;6970;51.340;3.240;2022-10-16T01:23:32;14.30;99.90
13798;DHT22;6970;51.340;3.240;2022-10-16T01:26:20;14.30;99.90
13798;DHT22;6970;51.340;3.240;2022-10-16T01:31:41;14.30;99.90
13798;DHT22;6970;51.340;3.240;2022-10-16T01:36:58;14.20;99.90
13798;DHT22;6970;51.340;3.240;2022-10-16T01:39:29;14.20;99.90
13798;DHT22;6970;51.340;3.240;2022-10-16T01:42:19;14.20;99.90
13798;DHT22;6970;51.340;3.240;2022-10-16T01:44:51;14.20;99.90
13798;DHT22;6970;51.340;3.240;2022-10-16T01:47:22;14.20;99.90
13798;DHT22;6970;51.340;3.240;2022-10-16T01:49:52;14.20;99.90
13798;DHT22;6970;51.340;3.240;2022-10-16T01:52:23;14.20;99.90
13798;DHT22;6970;51.340;3.240;2022-10-16T01:54:54;14.20;99.90
13798;DHT22;6970;51.340;3.240;2022-10-16T01:57:23;14.20;99.90
13798;DHT22;6970;51.340;3.240;2022-10-16T01:59:54;14.20;99.90
13798;DHT22;6970;51.340;3.240;2022-10-16T02:02:27;14.10;99.90
13798;DHT22;6970;51.340;3.240;2022-10-16T02:04:59;14.10;99.90
13798;DHT22;6970;51.340;3.240;2022-10-16T02:07:28;14.10;99.90
13798;DHT22;6970;51.340;3.240;2022-10-16T02:09:55;14.10;99.90
13798;DHT22;6970;51.340;3.240;2022-10-16T02:12:26;14.10;99.90
13798;DHT22;6970;51.340;3.240;2022-10-16T02:14:54;14.10;99.90
13798;DHT22;6970;51.340;3.240;2022-10-16T02:17:22;14.10;99.90
13798;DHT22;6970;51.340;3.240;2022-10-16T02:19:52;14.10;99.90
13798;DHT22;6970;51.340;3.240;2022-10-16T02:22:33;14.00;99.90
13798;DHT22;6970;51.340;3.240;2022-10-16T02:25:19;14.00;99.90
13798;DHT22;6970;51.340;3.240;2022-10-16T02:27:53;14.00;99.90
13798;DHT22;6970;51.340;3.240;2022-10-16T02:30:48;13.90;99.90
13798;DHT22;6970;51.340;3.240;2022-10-16T02:33:16;13.80;99.90
13798;DHT22;6970;51.340;3.240;2022-10-16T02:35:46;13.80;99.90
13798;DHT22;6970;51.340;3.240;2022-10-16T02:38:15;13.80;99.90
13798;DHT22;6970;51.340;3.240;2022-10-16T02:40:43;13.80;99.90
13798;DHT22;6970;51.340;3.240;2022-10-16T02:43:11;13.70;99.90
13798;DHT22;6970;51.340;3.240;2022-10-16T02:45:38;13.70;99.90
13798;DHT22;6970;51.340;3.240;2022-10-16T02:48:05;13.70;99.90
13798;DHT22;6970;51.340;3.240;2022-10-16T02:50:32;13.70;99.90
13798;DHT22;6970;51.340;3.240;2022-10-16T02:52:59;13.70;99.90
13798;DHT22;6970;51.340;3.240;2022-10-16T02:55:27;13.70;99.90
13798;DHT22;6970;51.340;3.240;2022-10-16T02:57:55;13.70;99.90
13798;DHT22;6970;51.340;3.240;2022-10-16T03:00:22;13.70;99.90
13798;DHT22;6970;51.340;3.240;2022-10-16T03:02:49;13.70;99.90
13798;DHT22;6970;51.340;3.240;2022-10-16T03:05:16;13.70;99.90
13798;DHT22;6970;51.340;3.240;2022-10-16T03:07:43;13.70;99.90
13798;DHT22;6970;51.340;3.240;2022-10-16T03:10:10;13.70;99.90
13798;DHT22;6970;51.340;3.240;2022-10-16T03:12:37;13.70;99.90
13798;DHT22;6970;51.340;3.240;2022-10-16T03:15:05;13.70;99.90
13798;DHT22;6970;51.340;3.240;2022-10-16T03:17:33;13.70;99.90
13798;DHT22;6970;51.340;3.240;2022-10-16T03:20:00;13.70;99.90
13798;DHT22;6970;51.340;3.240;2022-10-16T03:22:27;13.70;99.90
13798;DHT22;6970;51.340;3.240;2022-10-16T03:24:54;13.70;99.90
13798;DHT22;6970;51.340;3.240;2022-10-16T03:27:21;13.70;99.90
13798;DHT22;6970;51.340;3.240;2022-10-16T03:29:48;13.70;99.90
13798;DHT22;6970;51.340;3.240;2022-10-16T03:32:15;13.60;99.90
13798;DHT22;6970;51.340;3.240;2022-10-16T03:34:42;13.60;99.90
13798;DHT22;6970;51.340;3.240;2022-10-16T03:37:09;13.60;99.90
13798;DHT22;6970;51.340;3.240;2022-10-16T03:39:36;13.60;99.90
13798;DHT22;6970;51.340;3.240;2022-10-16T03:42:03;13.60;99.90
13798;DHT22;6970;51.340;3.240;2022-10-16T03:44:30;13.60;99.90
13798;DHT22;6970;51.340;3.240;2022-10-16T03:46:57;13.60;99.90
13798;DHT22;6970;51.340;3.240;2022-10-16T03:49:24;13.60;99.90
13798;DHT22;6970;51.340;3.240;2022-10-16T03:51:50;13.60;99.90
13798;DHT22;6970;51.340;3.240;2022-10-16T03:54:17;13.50;99.90
13798;DHT22;6970;51.340;3.240;2022-10-16T03:56:44;13.50;99.90
13798;DHT22;6970;51.340;3.240;2022-10-16T03:59:11;13.50;99.90
13798;DHT22;6970;51.340;3.240;2022-10-16T04:01:38;13.50;99.90
13798;DHT22;6970;51.340;3.240;2022-10-16T04:04:05;13.40;99.90
13798;DHT22;6970;51.340;3.240;2022-10-16T04:06:32;13.40;99.90
13798;DHT22;6970;51.340;3.240;2022-10-16T04:08:59;13.40;99.90
13798;DHT22;6970;51.340;3.240;2022-10-16T04:11:26;13.40;99.90
13798;DHT22;6970;51.340;3.240;2022-10-16T04:13:53;13.40;99.90
13798;DHT22;6970;51.340;3.240;2022-10-16T04:16:20;13.40;99.90
13798;DHT22;6970;51.340;3.240;2022-10-16T04:18:47;13.40;99.90
13798;DHT22;6970;51.340;3.240;2022-10-16T04:21:15;13.40;99.90
13798;DHT22;6970;51.340;3.240;2022-10-16T04:23:42;13.40;99.90
13798;DHT22;6970;51.340;3.240;2022-10-16T04:26:09;13.50;99.90
13798;DHT22;6970;51.340;3.240;2022-10-16T04:28:37;13.50;99.90
13798;DHT22;6970;51.340;3.240;2022-10-16T04:31:05;13.50;99.90
13798;DHT22;6970;51.340;3.240;2022-10-16T04:33:32;13.50;99.90
13798;DHT22;6970;51.340;3.240;2022-10-16T04:36:00;13.50;99.90
13798;DHT22;6970;51.340;3.240;2022-10-16T04:38:28;13.50;99.90
13798;DHT22;6970;51.340;3.240;2022-10-16T04:40:55;13.50;99.90
13798;DHT22;6970;51.340;3.240;2022-10-16T04:43:23;13.60;99.90
13798;DHT22;6970;51.340;3.240;2022-10-16T04:45:50;13.50;99.90
13798;DHT22;6970;51.340;3.240;2022-10-16T04:48:18;13.60;99.90
13798;DHT22;6970;51.340;3.240;2022-10-16T04:50:45;13.60;99.90
13798;DHT22;6970;51.340;3.240;2022-10-16T04:53:19;13.60;99.90
13798;DHT22;6970;51.340;3.240;2022-10-16T04:55:46;13.70;99.90
13798;DHT22;6970;51.340;3.240;2022-10-16T04:58:13;13.70;99.90
13798;DHT22;6970;51.340;3.240;2022-10-16T05:00:40;13.70;99.90
13798;DHT22;6970;51.340;3.240;2022-10-16T05:03:07;13.70;99.90
13798;DHT22;6970;51.340;3.240;2022-10-16T05:05:35;13.70;99.90
13798;DHT22;6970;51.340;3.240;2022-10-16T05:08:03;13.80;99.90
13798;DHT22;6970;51.340;3.240;2022-10-16T05:10:30;13.80;99.90
13798;DHT22;6970;51.340;3.240;2022-10-16T05:12:57;13.80;99.90
13798;DHT22;6970;51.340;3.240;2022-10-16T05:15:25;13.80;99.90
13798;DHT22;6970;51.340;3.240;2022-10-16T05:17:53;13.80;99.90
13798;DHT22;6970;51.340;3.240;2022-10-16T05:20:21;13.80;99.90
13798;DHT22;6970;51.340;3.240;2022-10-16T05:22:48;13.80;99.90
13798;DHT22;6970;51.340;3.240;2022-10-16T05:25:15;13.80;99.90
13798;DHT22;6970;51.340;3.240;2022-10-16T05:27:42;13.70;99.90
13798;DHT22;6970;51.340;3.240;2022-10-16T05:30:09;13.70;99.90
13798;DHT22;6970;51.340;3.240;2022-10-16T05:32:38;13.70;99.90
13798;DHT22;6970;51.340;3.240;2022-10-16T05:35:05;13.70;99.90
13798;DHT22;6970;51.340;3.240;2022-10-16T05:37:38;13.70;99.90
13798;DHT22;6970;51.340;3.240;2022-10-16T05:40:05;13.70;99.90
13798;DHT22;6970;51.340;3.240;2022-10-16T05:42:32;13.70;99.90
13798;DHT22;6970;51.340;3.240;2022-10-16T05:44:59;13.60;99.90
13798;DHT22;6970;51.340;3.240;2022-10-16T05:47:26;13.60;99.90
13798;DHT22;6970;51.340;3.240;2022-10-16T05:49:54;13.50;99.90
13798;DHT22;6970;51.340;3.240;2022-10-16T05:52:22;13.50;99.90
13798;DHT22;6970;51.340;3.240;2022-10-16T05:54:49;13.50;99.90
13798;DHT22;6970;51.340;3.240;2022-10-16T05:57:16;13.40;99.90
13798;DHT22;6970;51.340;3.240;2022-10-16T05:59:43;13.40;99.90
13798;DHT22;6970;51.340;3.240;2022-10-16T06:02:13;13.40;99.90
13798;DHT22;6970;51.340;3.240;2022-10-16T06:04:40;13.40;99.90
13798;DHT22;6970;51.340;3.240;2022-10-16T06:07:07;13.40;99.90
13798;DHT22;6970;51.340;3.240;2022-10-16T06:09:34;13.40;99.90
13798;DHT22;6970;51.340;3.240;2022-10-16T06:12:01;13.30;99.90
13798;DHT22;6970;51.340;3.240;2022-10-16T06:14:28;13.30;99.90
13798;DHT22;6970;51.340;3.240;2022-10-16T06:16:55;13.30;99.90
13798;DHT22;6970;51.340;3.240;2022-10-16T06:19:22;13.30;99.90
13798;DHT22;6970;51.340;3.240;2022-10-16T06:21:49;13.30;99.90
13798;DHT22;6970;51.340;3.240;2022-10-16T06:24:16;13.30;99.90
13798;DHT22;6970;51.340;3.240;2022-10-16T06:26:43;13.30;99.90
13798;DHT22;6970;51.340;3.240;2022-10-16T06:29:10;13.30;99.90
13798;DHT22;6970;51.340;3.240;2022-10-16T06:31:37;13.30;99.90
13798;DHT22;6970;51.340;3.240;2022-10-16T06:34:04;13.30;99.90
13798;DHT22;6970;51.340;3.240;2022-10-16T06:36:36;13.40;99.90
13798;DHT22;6970;51.340;3.240;2022-10-16T06:39:03;13.50;99.90
13798;DHT22;6970;51.340;3.240;2022-10-16T06:41:31;13.80;99.90
13798;DHT22;6970;51.340;3.240;2022-10-16T06:43:58;14.20;99.90
13798;DHT22;6970;51.340;3.240;2022-10-16T06:46:26;14.80;99.90
13798;DHT22;6970;51.340;3.240;2022-10-16T06:48:53;15.20;99.90
13798;DHT22;6970;51.340;3.240;2022-10-16T06:51:22;15.70;99.90
13798;DHT22;6970;51.340;3.240;2022-10-16T06:53:52;16.00;99.90
13798;DHT22;6970;51.340;3.240;2022-10-16T06:56:31;16.30;99.90
13798;DHT22;6970;51.340;3.240;2022-10-16T06:58:59;16.70;99.90
13798;DHT22;6970;51.340;3.240;2022-10-16T07:01:26;16.60;99.90
13798;DHT22;6970;51.340;3.240;2022-10-16T07:03:53;16.20;99.90
13798;DHT22;6970;51.340;3.240;2022-10-16T07:06:22;15.90;99.90
13798;DHT22;6970;51.340;3.240;2022-10-16T07:08:50;16.10;99.90
13798;DHT22;6970;51.340;3.240;2022-10-16T07:11:19;16.80;99.90
13798;DHT22;6970;51.340;3.240;2022-10-16T07:13:47;17.60;99.90
13798;DHT22;6970;51.340;3.240;2022-10-16T07:16:24;18.40;99.90
13798;DHT22;6970;51.340;3.240;2022-10-16T07:18:51;19.30;99.90
13798;DHT22;6970;51.340;3.240;2022-10-16T07:21:21;20.00;99.90
13798;DHT22;6970;51.340;3.240;2022-10-16T07:23:58;20.70;99.90
13798;DHT22;6970;51.340;3.240;2022-10-16T07:26:26;21.30;99.90
13798;DHT22;6970;51.340;3.240;2022-10-16T07:28:53;21.90;99.90
13798;DHT22;6970;51.340;3.240;2022-10-16T07:31:21;22.30;99.90
13798;DHT22;6970;51.340;3.240;2022-10-16T07:33:48;22.70;99.90
13798;DHT22;6970;51.340;3.240;2022-10-16T07:36:17;23.10;99.30
13798;DHT22;6970;51.340;3.240;2022-10-16T07:38:45;23.80;98.90
13798;DHT22;6970;51.340;3.240;2022-10-16T07:41:15;24.20;96.90
13798;DHT22;6970;51.340;3.240;2022-10-16T07:43:47;24.40;96.70
13798;DHT22;6970;51.340;3.240;2022-10-16T07:46:14;25.00;95.90
13798;DHT22;6970;51.340;3.240;2022-10-16T07:48:41;25.40;94.30
13798;DHT22;6970;51.340;3.240;2022-10-16T07:51:13;25.70;94.10
13798;DHT22;6970;51.340;3.240;2022-10-16T07:53:40;26.00;92.40
13798;DHT22;6970;51.340;3.240;2022-10-16T07:56:08;26.10;92.90
13798;DHT22;6970;51.340;3.240;2022-10-16T07:58:35;26.80;92.20
13798;DHT22;6970;51.340;3.240;2022-10-16T08:01:07;27.20;91.60
13798;DHT22;6970;51.340;3.240;2022-10-16T08:03:34;27.70;90.60
13798;DHT22;6970;51.340;3.240;2022-10-16T08:06:02;28.30;90.10
13798;DHT22;6970;51.340;3.240;2022-10-16T08:08:30;28.50;88.80
13798;DHT22;6970;51.340;3.240;2022-10-16T08:10:57;28.80;86.90
13798;DHT22;6970;51.340;3.240;2022-10-16T08:13:24;28.80;86.60
13798;DHT22;6970;51.340;3.240;2022-10-16T08:15:51;28.70;86.10
13798;DHT22;6970;51.340;3.240;2022-10-16T08:18:18;28.90;85.90
13798;DHT22;6970;51.340;3.240;2022-10-16T08:20:44;28.90;83.80
13798;DHT22;6970;51.340;3.240;2022-10-16T08:23:12;28.40;84.90
13798;DHT22;6970;51.340;3.240;2022-10-16T08:25:40;28.30;85.90
13798;DHT22;6970;51.340;3.240;2022-10-16T08:28:09;28.50;85.20
13798;DHT22;6970;51.340;3.240;2022-10-16T08:30:36;29.00;85.00
13798;DHT22;6970;51.340;3.240;2022-10-16T08:33:04;29.50;83.90
13798;DHT22;6970;51.340;3.240;2022-10-16T08:35:31;29.20;81.90
13798;DHT22;6970;51.340;3.240;2022-10-16T08:37:58;28.70;82.70
13798;DHT22;6970;51.340;3.240;2022-10-16T08:40:30;28.10;84.50
13798;DHT22;6970;51.340;3.240;2022-10-16T08:48:45;28.30;85.00
13798;DHT22;6970;51.340;3.240;2022-10-16T08:51:41;28.90;83.20
13798;DHT22;6970;51.340;3.240;2022-10-16T08:56:50;30.10;79.20
13798;DHT22;6970;51.340;3.240;2022-10-16T08:59:17;30.00;79.60
13798;DHT22;6970;51.340;3.240;2022-10-16T09:01:49;30.30;81.00
13798;DHT22;6970;51.340;3.240;2022-10-16T09:15:34;31.60;75.70
13798;DHT22;6970;51.340;3.240;2022-10-16T09:18:18;31.50;75.30
13798;DHT22;6970;51.340;3.240;2022-10-16T09:23:36;31.70;75.20
13798;DHT22;6970;51.340;3.240;2022-10-16T09:26:05;32.10;74.40
13798;DHT22;6970;51.340;3.240;2022-10-16T09:28:32;32.10;74.00
13798;DHT22;6970;51.340;3.240;2022-10-16T09:30:59;32.40;73.90
13798;DHT22;6970;51.340;3.240;2022-10-16T09:33:36;32.20;73.70
13798;DHT22;6970;51.340;3.240;2022-10-16T09:36:05;32.10;73.30
13798;DHT22;6970;51.340;3.240;2022-10-16T09:38:35;30.90;74.20
13798;DHT22;6970;51.340;3.240;2022-10-16T09:41:19;30.10;77.00
13798;DHT22;6970;51.340;3.240;2022-10-16T09:46:43;30.30;78.20
13798;DHT22;6970;51.340;3.240;2022-10-16T09:51:48;31.30;75.20
13798;DHT22;6970;51.340;3.240;2022-10-16T09:54:18;31.50;74.80
13798;DHT22;6970;51.340;3.240;2022-10-16T09:57:06;31.50;75.10
13798;DHT22;6970;51.340;3.240;2022-10-16T09:59:33;31.50;74.80
13798;DHT22;6970;51.340;3.240;2022-10-16T10:02:09;31.40;74.50
13798;DHT22;6970;51.340;3.240;2022-10-16T10:04:44;31.30;74.00
13798;DHT22;6970;51.340;3.240;2022-10-16T10:07:25;31.40;74.30
13798;DHT22;6970;51.340;3.240;2022-10-16T10:09:55;31.40;74.10
13798;DHT22;6970;51.340;3.240;2022-10-16T10:12:28;31.50;74.80
13798;DHT22;6970;51.340;3.240;2022-10-16T10:15:06;31.90;74.20
13798;DHT22;6970;51.340;3.240;2022-10-16T10:17:44;32.20;74.30
13798;DHT22;6970;51.340;3.240;2022-10-16T10:22:57;31.80;72.20
13798;DHT22;6970;51.340;3.240;2022-10-16T10:25:42;31.30;73.00
13798;DHT22;6970;51.340;3.240;2022-10-16T10:37:35;28.10;80.30
13798;DHT22;6970;51.340;3.240;2022-10-16T10:45:48;27.20;80.80
13798;DHT22;6970;51.340;3.240;2022-10-16T10:51:33;26.90;82.40
13798;DHT22;6970;51.340;3.240;2022-10-16T10:54:35;26.80;82.30
13798;DHT22;6970;51.340;3.240;2022-10-16T11:00:23;27.10;83.40
13798;DHT22;6970;51.340;3.240;2022-10-16T11:05:44;27.30;80.80
13798;DHT22;6970;51.340;3.240;2022-10-16T11:11:05;27.20;81.30
13798;DHT22;6970;51.340;3.240;2022-10-16T11:13:40;26.60;80.80
13798;DHT22;6970;51.340;3.240;2022-10-16T11:16:35;26.00;82.20
13798;DHT22;6970;51.340;3.240;2022-10-16T11:21:35;25.60;83.40
13798;DHT22;6970;51.340;3.240;2022-10-16T11:24:20;25.10;84.30
13798;DHT22;6970;51.340;3.240;2022-10-16T11:26:50;24.50;86.00
13798;DHT22;6970;51.340;3.240;2022-10-16T11:29:23;24.10;87.70
13798;DHT22;6970;51.340;3.240;2022-10-16T11:32:04;23.90;89.00
13798;DHT22;6970;51.340;3.240;2022-10-16T11:34:43;23.70;88.40
13798;DHT22;6970;51.340;3.240;2022-10-16T11:37:19;23.40;89.30
13798;DHT22;6970;51.340;3.240;2022-10-16T11:39:47;23.30;90.10
13798;DHT22;6970;51.340;3.240;2022-10-16T11:42:38;23.30;90.30
13798;DHT22;6970;51.340;3.240;2022-10-16T11:53:42;23.10;90.80
13798;DHT22;6970;51.340;3.240;2022-10-16T11:56:16;23.20;91.10
13798;DHT22;6970;51.340;3.240;2022-10-16T12:01:42;23.40;90.40
13798;DHT22;6970;51.340;3.240;2022-10-16T12:06:48;23.00;90.70
13798;DHT22;6970;51.340;3.240;2022-10-16T12:09:31;22.90;91.00
13798;DHT22;6970;51.340;3.240;2022-10-16T12:11:59;22.90;91.30
13798;DHT22;6970;51.340;3.240;2022-10-16T12:17:25;23.10;90.70
13798;DHT22;6970;51.340;3.240;2022-10-16T12:25:36;23.10;90.50
13798;DHT22;6970;51.340;3.240;2022-10-16T12:28:19;22.80;90.10
13798;DHT22;6970;51.340;3.240;2022-10-16T12:30:55;22.40;90.70
13798;DHT22;6970;51.340;3.240;2022-10-16T12:33:29;22.10;91.30
13798;DHT22;6970;51.340;3.240;2022-10-16T12:35:58;22.00;91.80
13798;DHT22;6970;51.340;3.240;2022-10-16T12:41:00;21.70;92.70
13798;DHT22;6970;51.340;3.240;2022-10-16T12:43:43;21.80;92.80
13798;DHT22;6970;51.340;3.240;2022-10-16T12:48:43;21.80;92.40
13798;DHT22;6970;51.340;3.240;2022-10-16T12:54:03;21.40;92.70
13798;DHT22;6970;51.340;3.240;2022-10-16T12:59:24;21.30;93.20
13798;DHT22;6970;51.340;3.240;2022-10-16T13:10:35;21.10;93.90
13798;DHT22;6970;51.340;3.240;2022-10-16T13:13:23;21.30;93.80
13798;DHT22;6970;51.340;3.240;2022-10-16T13:16:07;21.40;93.80
13798;DHT22;6970;51.340;3.240;2022-10-16T13:27:10;21.10;93.50
13798;DHT22;6970;51.340;3.240;2022-10-16T13:29:41;21.20;93.50
13798;DHT22;6970;51.340;3.240;2022-10-16T13:32:10;21.20;93.50
13798;DHT22;6970;51.340;3.240;2022-10-16T13:34:48;21.10;93.70
13798;DHT22;6970;51.340;3.240;2022-10-16T13:37:21;21.00;93.70
13798;DHT22;6970;51.340;3.240;2022-10-16T13:39:49;20.90;93.90
13798;DHT22;6970;51.340;3.240;2022-10-16T13:44:55;20.50;94.40
13798;DHT22;6970;51.340;3.240;2022-10-16T13:47:27;20.50;94.70
13798;DHT22;6970;51.340;3.240;2022-10-16T13:50:14;20.40;94.60
13798;DHT22;6970;51.340;3.240;2022-10-16T13:52:41;20.40;94.70
13798;DHT22;6970;51.340;3.240;2022-10-16T13:55:17;20.30;94.70
13798;DHT22;6970;51.340;3.240;2022-10-16T13:57:45;20.30;94.90
13798;DHT22;6970;51.340;3.240;2022-10-16T14:00:24;20.30;95.10
13798;DHT22;6970;51.340;3.240;2022-10-16T14:02:57;20.10;95.50
13798;DHT22;6970;51.340;3.240;2022-10-16T14:05:25;20.00;95.80
13798;DHT22;6970;51.340;3.240;2022-10-16T14:07:53;20.00;95.90
13798;DHT22;6970;51.340;3.240;2022-10-16T14:10:31;19.90;95.90
13798;DHT22;6970;51.340;3.240;2022-10-16T14:13:05;19.90;96.00
13798;DHT22;6970;51.340;3.240;2022-10-16T14:15:34;20.00;96.10
13798;DHT22;6970;51.340;3.240;2022-10-16T14:18:02;20.00;96.10
13798;DHT22;6970;51.340;3.240;2022-10-16T14:20:32;20.00;96.10
13798;DHT22;6970;51.340;3.240;2022-10-16T14:23:18;20.00;96.10
13798;DHT22;6970;51.340;3.240;2022-10-16T14:25:46;20.00;96.10
13798;DHT22;6970;51.340;3.240;2022-10-16T14:28:17;20.00;96.20
13798;DHT22;6970;51.340;3.240;2022-10-16T14:30:54;19.90;96.40
13798;DHT22;6970;51.340;3.240;2022-10-16T14:38:41;19.60;96.80
13798;DHT22;6970;51.340;3.240;2022-10-16T14:41:09;19.60;97.00
13798;DHT22;6970;51.340;3.240;2022-10-16T14:43:39;19.50;97.20
13798;DHT22;6970;51.340;3.240;2022-10-16T14:46:12;19.40;97.30
13798;DHT22;6970;51.340;3.240;2022-10-16T14:48:42;19.40;97.50
13798;DHT22;6970;51.340;3.240;2022-10-16T14:51:19;19.30;97.90
13798;DHT22;6970;51.340;3.240;2022-10-16T14:53:46;19.20;98.20
13798;DHT22;6970;51.340;3.240;2022-10-16T14:56:22;19.10;98.50
13798;DHT22;6970;51.340;3.240;2022-10-16T14:58:51;19.00;98.60
13798;DHT22;6970;51.340;3.240;2022-10-16T15:01:18;19.00;99.00
13798;DHT22;6970;51.340;3.240;2022-10-16T15:03:45;18.90;99.20
13798;DHT22;6970;51.340;3.240;2022-10-16T15:06:15;18.90;99.40
13798;DHT22;6970;51.340;3.240;2022-10-16T15:08:42;18.80;99.60
13798;DHT22;6970;51.340;3.240;2022-10-16T15:11:19;18.70;99.70
13798;DHT22;6970;51.340;3.240;2022-10-16T15:13:46;18.60;99.80
13798;DHT22;6970;51.340;3.240;2022-10-16T15:16:16;18.50;99.90
13798;DHT22;6970;51.340;3.240;2022-10-16T15:18:43;18.50;99.90
13798;DHT22;6970;51.340;3.240;2022-10-16T15:21:28;18.40;99.90
13798;DHT22;6970;51.340;3.240;2022-10-16T15:23:55;18.40;99.90
13798;DHT22;6970;51.340;3.240;2022-10-16T15:26:27;18.30;99.90
13798;DHT22;6970;51.340;3.240;2022-10-16T15:28:55;18.30;99.90
13798;DHT22;6970;51.340;3.240;2022-10-16T15:31:23;18.30;99.90
13798;DHT22;6970;51.340;3.240;2022-10-16T15:33:51;18.30;99.90
13798;DHT22;6970;51.340;3.240;2022-10-16T15:36:32;18.30;99.90
13798;DHT22;6970;51.340;3.240;2022-10-16T15:39:04;18.20;99.90
13798;DHT22;6970;51.340;3.240;2022-10-16T15:41:32;18.20;99.90
13798;DHT22;6970;51.340;3.240;2022-10-16T15:43:58;18.20;99.90
13798;DHT22;6970;51.340;3.240;2022-10-16T15:46:25;18.20;99.90
13798;DHT22;6970;51.340;3.240;2022-10-16T15:48:57;18.10;99.90
13798;DHT22;6970;51.340;3.240;2022-10-16T15:51:25;18.00;99.90
13798;DHT22;6970;51.340;3.240;2022-10-16T15:53:54;17.90;99.90
13798;DHT22;6970;51.340;3.240;2022-10-16T15:56:23;17.90;99.90
13798;DHT22;6970;51.340;3.240;2022-10-16T15:58:52;17.80;99.90
13798;DHT22;6970;51.340;3.240;2022-10-16T16:01:21;17.80;99.90
13798;DHT22;6970;51.340;3.240;2022-10-16T16:03:53;17.80;99.90
13798;DHT22;6970;51.340;3.240;2022-10-16T16:06:20;17.70;99.90
13798;DHT22;6970;51.340;3.240;2022-10-16T16:08:47;17.70;99.90
13798;DHT22;6970;51.340;3.240;2022-10-16T16:11:16;17.70;99.90
13798;DHT22;6970;51.340;3.240;2022-10-16T16:13:43;17.60;99.90
13798;DHT22;6970;51.340;3.240;2022-10-16T16:16:13;17.60;99.90
13798;DHT22;6970;51.340;3.240;2022-10-16T16:18:41;17.60;99.90
13798;DHT22;6970;51.340;3.240;2022-10-16T16:21:11;17.50;99.90
13798;DHT22;6970;51.340;3.240;2022-10-16T16:23:38;17.60;99.90
13798;DHT22;6970;51.340;3.240;2022-10-16T16:26:11;17.50;99.90
13798;DHT22;6970;51.340;3.240;2022-10-16T16:28:40;17.50;99.90
13798;DHT22;6970;51.340;3.240;2022-10-16T16:31:08;17.50;99.90
13798;DHT22;6970;51.340;3.240;2022-10-16T16:33:35;17.40;99.90
13798;DHT22;6970;51.340;3.240;2022-10-16T16:36:05;17.40;99.90
13798;DHT22;6970;51.340;3.240;2022-10-16T16:38:38;17.40;99.90
13798;DHT22;6970;51.340;3.240;2022-10-16T16:43:43;17.30;99.90
13798;DHT22;6970;51.340;3.240;2022-10-16T16:46:10;17.30;99.90
13798;DHT22;6970;51.340;3.240;2022-10-16T16:48:37;17.30;99.90
13798;DHT22;6970;51.340;3.240;2022-10-16T16:51:12;17.20;99.90
13798;DHT22;6970;51.340;3.240;2022-10-16T16:53:45;17.20;99.90
13798;DHT22;6970;51.340;3.240;2022-10-16T16:56:13;17.10;99.90
13798;DHT22;6970;51.340;3.240;2022-10-16T16:58:40;17.10;99.90
13798;DHT22;6970;51.340;3.240;2022-10-16T17:01:09;17.10;99.90
13798;DHT22;6970;51.340;3.240;2022-10-16T17:03:53;17.00;99.90
13798;DHT22;6970;51.340;3.240;2022-10-16T17:06:30;17.00;99.90
13798;DHT22;6970;51.340;3.240;2022-10-16T17:09:00;17.00;99.90
13798;DHT22;6970;51.340;3.240;2022-10-16T17:11:27;16.90;99.90
13798;DHT22;6970;51.340;3.240;2022-10-16T17:13:55;16.90;99.90
13798;DHT22;6970;51.340;3.240;2022-10-16T17:16:32;16.90;99.90
13798;DHT22;6970;51.340;3.240;2022-10-16T17:19:05;16.90;99.90
13798;DHT22;6970;51.340;3.240;2022-10-16T17:21:34;16.80;99.90
13798;DHT22;6970;51.340;3.240;2022-10-16T17:24:01;16.80;99.90
13798;DHT22;6970;51.340;3.240;2022-10-16T17:26:29;16.80;99.90
13798;DHT22;6970;51.340;3.240;2022-10-16T17:28:58;16.70;99.90
13798;DHT22;6970;51.340;3.240;2022-10-16T17:31:28;16.70;99.90
13798;DHT22;6970;51.340;3.240;2022-10-16T17:33:57;16.60;99.90
13798;DHT22;6970;51.340;3.240;2022-10-16T17:36:24;16.60;99.90
13798;DHT22;6970;51.340;3.240;2022-10-16T17:38:52;16.50;99.90
13798;DHT22;6970;51.340;3.240;2022-10-16T17:41:22;16.50;99.90
13798;DHT22;6970;51.340;3.240;2022-10-16T17:43:50;16.50;99.90
13798;DHT22;6970;51.340;3.240;2022-10-16T17:46:20;16.40;99.90
13798;DHT22;6970;51.340;3.240;2022-10-16T17:48:50;16.40;99.90
13798;DHT22;6970;51.340;3.240;2022-10-16T17:51:20;16.40;99.90
13798;DHT22;6970;51.340;3.240;2022-10-16T17:53:48;16.30;99.90
13798;DHT22;6970;51.340;3.240;2022-10-16T17:56:16;16.30;99.90
13798;DHT22;6970;51.340;3.240;2022-10-16T17:58:43;16.30;99.90
13798;DHT22;6970;51.340;3.240;2022-10-16T18:01:21;16.30;99.90
13798;DHT22;6970;51.340;3.240;2022-10-16T18:03:55;16.20;99.90
13798;DHT22;6970;51.340;3.240;2022-10-16T18:06:23;16.20;99.90
13798;DHT22;6970;51.340;3.240;2022-10-16T18:08:51;16.10;99.90
13798;DHT22;6970;51.340;3.240;2022-10-16T18:11:19;16.10;99.90
13798;DHT22;6970;51.340;3.240;2022-10-16T18:13:46;16.10;99.90
13798;DHT22;6970;51.340;3.240;2022-10-16T18:16:14;16.00;99.90
13798;DHT22;6970;51.340;3.240;2022-10-16T18:18:43;16.00;99.90
13798;DHT22;6970;51.340;3.240;2022-10-16T18:21:15;15.90;99.90